Fremont, Michigan
Current Conditions -  °F | °C
As of 3:10 PM on Friday 19 Dec 2014 (Local Time) from KFFX Reporting Station
Clear Clear  
Wind Chill: 31°   Ceiling: Unl
Heat Index: 31°   Visibility: 10mi
Dew Point: 15°   Wind: 0mph
Humidity: 52%   Direction: NA
Pressure: 30.24"   Gusts: NA
Location:  43.46°N, 85.95°W
Report Text: KFFX 192010Z AUTO 00000KT 10SM CLR M01/M09 A3024 RMK AO2 T10061095
Loading
Personal Weather Stations






























Interactive Weather Map New forecast layout! Learn more

10-Day Weather Forecast

Advertisements
Track Severe Weather on mobile